sensor_id;sensor_type;location;lat;lon;timestamp;temperature;humidity
37456;DHT22;23316;50.718;7.328;2023-05-17T00:01:20;12.20;53.40
37456;DHT22;23316;50.718;7.328;2023-05-17T00:03:47;12.20;53.40
37456;DHT22;23316;50.718;7.328;2023-05-17T00:06:15;12.10;53.40
37456;DHT22;23316;50.718;7.328;2023-05-17T00:08:42;12.10;53.50
37456;DHT22;23316;50.718;7.328;2023-05-17T00:11:09;12.10;53.60
37456;DHT22;23316;50.718;7.328;2023-05-17T00:13:36;12.00;53.50
37456;DHT22;23316;50.718;7.328;2023-05-17T00:16:07;12.00;53.60
37456;DHT22;23316;50.718;7.328;2023-05-17T00:18:34;12.00;53.80
37456;DHT22;23316;50.718;7.328;2023-05-17T00:21:01;12.00;53.80
37456;DHT22;23316;50.718;7.328;2023-05-17T00:23:28;11.90;53.80
37456;DHT22;23316;50.718;7.328;2023-05-17T00:25:55;11.90;53.90
37456;DHT22;23316;50.718;7.328;2023-05-17T00:28:23;11.80;54.00
37456;DHT22;23316;50.718;7.328;2023-05-17T00:30:50;11.80;54.10
37456;DHT22;23316;50.718;7.328;2023-05-17T00:33:19;11.70;54.20
37456;DHT22;23316;50.718;7.328;2023-05-17T00:35:46;11.70;54.30
37456;DHT22;23316;50.718;7.328;2023-05-17T00:38:13;11.70;54.40
37456;DHT22;23316;50.718;7.328;2023-05-17T00:40:40;11.60;54.40
37456;DHT22;23316;50.718;7.328;2023-05-17T00:43:07;11.60;54.50
37456;DHT22;23316;50.718;7.328;2023-05-17T00:45:35;11.60;54.60
37456;DHT22;23316;50.718;7.328;2023-05-17T00:48:02;11.60;54.70
37456;DHT22;23316;50.718;7.328;2023-05-17T00:50:31;11.60;54.70
37456;DHT22;23316;50.718;7.328;2023-05-17T00:52:58;11.60;55.20
37456;DHT22;23316;50.718;7.328;2023-05-17T00:55:26;11.50;54.80
37456;DHT22;23316;50.718;7.328;2023-05-17T00:57:54;11.50;54.80
37456;DHT22;23316;50.718;7.328;2023-05-17T01:00:21;11.50;54.80
37456;DHT22;23316;50.718;7.328;2023-05-17T01:02:49;11.50;54.90
37456;DHT22;23316;50.718;7.328;2023-05-17T01:05:17;11.50;54.90
37456;DHT22;23316;50.718;7.328;2023-05-17T01:07:45;11.50;55.00
37456;DHT22;23316;50.718;7.328;2023-05-17T01:10:13;11.50;55.10
37456;DHT22;23316;50.718;7.328;2023-05-17T01:12:49;11.40;55.00
37456;DHT22;23316;50.718;7.328;2023-05-17T01:15:25;11.40;55.10
37456;DHT22;23316;50.718;7.328;2023-05-17T01:17:59;11.40;55.20
37456;DHT22;23316;50.718;7.328;2023-05-17T01:20:34;11.40;55.70
37456;DHT22;23316;50.718;7.328;2023-05-17T01:23:17;11.40;55.20
37456;DHT22;23316;50.718;7.328;2023-05-17T01:25:53;11.40;55.40
37456;DHT22;23316;50.718;7.328;2023-05-17T01:28:24;11.40;55.50
37456;DHT22;23316;50.718;7.328;2023-05-17T01:30:54;11.30;55.50
37456;DHT22;23316;50.718;7.328;2023-05-17T01:33:23;11.30;55.70
37456;DHT22;23316;50.718;7.328;2023-05-17T01:35:51;11.30;56.20
37456;DHT22;23316;50.718;7.328;2023-05-17T01:38:18;11.20;55.70
37456;DHT22;23316;50.718;7.328;2023-05-17T01:40:51;11.20;55.80
37456;DHT22;23316;50.718;7.328;2023-05-17T01:43:24;11.20;55.90
37456;DHT22;23316;50.718;7.328;2023-05-17T01:45:56;11.20;55.90
37456;DHT22;23316;50.718;7.328;2023-05-17T01:48:31;11.20;56.00
37456;DHT22;23316;50.718;7.328;2023-05-17T01:51:00;11.20;56.00
37456;DHT22;23316;50.718;7.328;2023-05-17T01:53:29;11.20;55.90
37456;DHT22;23316;50.718;7.328;2023-05-17T01:56:02;11.20;55.80
37456;DHT22;23316;50.718;7.328;2023-05-17T01:58:36;11.20;55.90
37456;DHT22;23316;50.718;7.328;2023-05-17T02:01:06;11.20;56.00
37456;DHT22;23316;50.718;7.328;2023-05-17T02:03:35;11.20;56.10
37456;DHT22;23316;50.718;7.328;2023-05-17T02:06:03;11.20;56.30
37456;DHT22;23316;50.718;7.328;2023-05-17T02:08:30;11.20;56.40
37456;DHT22;23316;50.718;7.328;2023-05-17T02:10:58;11.10;56.40
37456;DHT22;23316;50.718;7.328;2023-05-17T02:13:25;11.20;57.00
37456;DHT22;23316;50.718;7.328;2023-05-17T02:15:53;11.10;56.50
37456;DHT22;23316;50.718;7.328;2023-05-17T02:18:21;11.10;56.50
37456;DHT22;23316;50.718;7.328;2023-05-17T02:20:48;11.10;56.60
37456;DHT22;23316;50.718;7.328;2023-05-17T02:23:15;11.10;56.70
37456;DHT22;23316;50.718;7.328;2023-05-17T02:25:43;11.10;56.70
37456;DHT22;23316;50.718;7.328;2023-05-17T02:28:10;11.10;56.80
37456;DHT22;23316;50.718;7.328;2023-05-17T02:30:37;11.00;56.90
37456;DHT22;23316;50.718;7.328;2023-05-17T02:33:07;11.00;56.90
37456;DHT22;23316;50.718;7.328;2023-05-17T02:35:34;11.00;57.10
37456;DHT22;23316;50.718;7.328;2023-05-17T02:38:04;11.00;57.20
37456;DHT22;23316;50.718;7.328;2023-05-17T02:40:31;11.00;57.30
37456;DHT22;23316;50.718;7.328;2023-05-17T02:42:58;11.00;57.30
37456;DHT22;23316;50.718;7.328;2023-05-17T02:45:26;11.00;57.30
37456;DHT22;23316;50.718;7.328;2023-05-17T02:47:53;11.00;57.30
37456;DHT22;23316;50.718;7.328;2023-05-17T02:50:22;11.00;57.30
37456;DHT22;23316;50.718;7.328;2023-05-17T02:52:51;11.00;57.30
37456;DHT22;23316;50.718;7.328;2023-05-17T02:55:18;11.00;57.20
37456;DHT22;23316;50.718;7.328;2023-05-17T02:57:46;11.10;57.20
37456;DHT22;23316;50.718;7.328;2023-05-17T03:00:15;11.10;57.10
37456;DHT22;23316;50.718;7.328;2023-05-17T03:02:43;11.10;57.00
37456;DHT22;23316;50.718;7.328;2023-05-17T03:05:10;11.10;57.00
37456;DHT22;23316;50.718;7.328;2023-05-17T03:07:38;11.10;56.80
37456;DHT22;23316;50.718;7.328;2023-05-17T03:10:06;11.10;56.80
37456;DHT22;23316;50.718;7.328;2023-05-17T03:12:34;11.10;56.70
37456;DHT22;23316;50.718;7.328;2023-05-17T03:15:01;11.10;56.60
37456;DHT22;23316;50.718;7.328;2023-05-17T03:17:29;11.10;56.60
37456;DHT22;23316;50.718;7.328;2023-05-17T03:19:56;11.10;56.60
37456;DHT22;23316;50.718;7.328;2023-05-17T03:22:23;11.10;56.60
37456;DHT22;23316;50.718;7.328;2023-05-17T03:24:52;11.10;56.60
37456;DHT22;23316;50.718;7.328;2023-05-17T03:27:19;11.10;56.60
37456;DHT22;23316;50.718;7.328;2023-05-17T03:29:47;11.10;56.60
37456;DHT22;23316;50.718;7.328;2023-05-17T03:32:14;11.10;56.60
37456;DHT22;23316;50.718;7.328;2023-05-17T03:34:42;11.10;56.60
37456;DHT22;23316;50.718;7.328;2023-05-17T03:37:09;11.10;56.60
37456;DHT22;23316;50.718;7.328;2023-05-17T03:39:36;11.00;56.60
37456;DHT22;23316;50.718;7.328;2023-05-17T03:42:05;11.00;56.80
37456;DHT22;23316;50.718;7.328;2023-05-17T03:44:35;11.00;56.90
37456;DHT22;23316;50.718;7.328;2023-05-17T03:47:02;11.00;56.90
37456;DHT22;23316;50.718;7.328;2023-05-17T03:49:29;11.00;57.00
37456;DHT22;23316;50.718;7.328;2023-05-17T03:51:57;11.00;57.00
37456;DHT22;23316;50.718;7.328;2023-05-17T03:54:24;10.90;57.00
37456;DHT22;23316;50.718;7.328;2023-05-17T03:56:52;11.00;57.20
37456;DHT22;23316;50.718;7.328;2023-05-17T03:59:20;10.90;57.30
37456;DHT22;23316;50.718;7.328;2023-05-17T04:01:47;10.90;57.30
37456;DHT22;23316;50.718;7.328;2023-05-17T04:04:16;10.90;57.30
37456;DHT22;23316;50.718;7.328;2023-05-17T04:06:43;10.90;57.40
37456;DHT22;23316;50.718;7.328;2023-05-17T04:09:11;10.90;57.50
37456;DHT22;23316;50.718;7.328;2023-05-17T04:11:40;10.90;57.50
37456;DHT22;23316;50.718;7.328;2023-05-17T04:14:08;11.00;57.70
37456;DHT22;23316;50.718;7.328;2023-05-17T04:16:36;10.90;57.70
37456;DHT22;23316;50.718;7.328;2023-05-17T04:19:04;11.00;57.80
37456;DHT22;23316;50.718;7.328;2023-05-17T04:21:31;10.90;58.30
37456;DHT22;23316;50.718;7.328;2023-05-17T04:23:58;11.00;57.90
37456;DHT22;23316;50.718;7.328;2023-05-17T04:26:26;11.00;58.10
37456;DHT22;23316;50.718;7.328;2023-05-17T04:28:53;11.00;58.20
37456;DHT22;23316;50.718;7.328;2023-05-17T04:31:20;11.00;58.30
37456;DHT22;23316;50.718;7.328;2023-05-17T04:33:49;10.90;58.30
37456;DHT22;23316;50.718;7.328;2023-05-17T04:36:17;10.90;58.50
37456;DHT22;23316;50.718;7.328;2023-05-17T04:38:44;10.90;58.70
37456;DHT22;23316;50.718;7.328;2023-05-17T04:41:12;10.90;58.90
37456;DHT22;23316;50.718;7.328;2023-05-17T04:43:39;10.90;59.10
37456;DHT22;23316;50.718;7.328;2023-05-17T04:46:07;10.90;59.50
37456;DHT22;23316;50.718;7.328;2023-05-17T04:48:34;10.90;59.60
37456;DHT22;23316;50.718;7.328;2023-05-17T04:51:03;10.90;60.00
37456;DHT22;23316;50.718;7.328;2023-05-17T04:53:31;11.00;60.30
37456;DHT22;23316;50.718;7.328;2023-05-17T04:55:58;11.00;60.50
37456;DHT22;23316;50.718;7.328;2023-05-17T04:58:26;11.00;61.00
37456;DHT22;23316;50.718;7.328;2023-05-17T05:00:53;11.00;61.00
37456;DHT22;23316;50.718;7.328;2023-05-17T05:03:21;11.00;61.10
37456;DHT22;23316;50.718;7.328;2023-05-17T05:05:49;11.00;61.40
37456;DHT22;23316;50.718;7.328;2023-05-17T05:08:17;11.00;61.50
37456;DHT22;23316;50.718;7.328;2023-05-17T05:10:45;11.00;61.70
37456;DHT22;23316;50.718;7.328;2023-05-17T05:13:12;11.00;61.90
37456;DHT22;23316;50.718;7.328;2023-05-17T05:15:40;11.00;62.20
37456;DHT22;23316;50.718;7.328;2023-05-17T05:18:07;11.00;62.20
37456;DHT22;23316;50.718;7.328;2023-05-17T05:20:34;11.00;62.50
37456;DHT22;23316;50.718;7.328;2023-05-17T05:23:02;11.00;62.60
37456;DHT22;23316;50.718;7.328;2023-05-17T05:25:32;11.10;62.80
37456;DHT22;23316;50.718;7.328;2023-05-17T05:28:00;11.00;63.00
37456;DHT22;23316;50.718;7.328;2023-05-17T05:30:27;11.10;63.20
37456;DHT22;23316;50.718;7.328;2023-05-17T05:32:54;11.10;63.10
37456;DHT22;23316;50.718;7.328;2023-05-17T05:35:22;11.10;63.20
37456;DHT22;23316;50.718;7.328;2023-05-17T05:37:54;11.10;63.30
37456;DHT22;23316;50.718;7.328;2023-05-17T05:40:21;11.10;63.40
37456;DHT22;23316;50.718;7.328;2023-05-17T05:42:50;11.10;63.40
37456;DHT22;23316;50.718;7.328;2023-05-17T05:45:18;11.10;63.60
37456;DHT22;23316;50.718;7.328;2023-05-17T05:47:46;11.20;63.70
37456;DHT22;23316;50.718;7.328;2023-05-17T05:50:14;11.20;63.90
37456;DHT22;23316;50.718;7.328;2023-05-17T05:52:41;11.20;64.00
37456;DHT22;23316;50.718;7.328;2023-05-17T05:55:09;11.20;64.10
37456;DHT22;23316;50.718;7.328;2023-05-17T05:57:36;11.30;64.10
37456;DHT22;23316;50.718;7.328;2023-05-17T06:00:06;11.30;64.20
37456;DHT22;23316;50.718;7.328;2023-05-17T06:02:34;11.30;64.10
37456;DHT22;23316;50.718;7.328;2023-05-17T06:05:02;11.30;63.80
37456;DHT22;23316;50.718;7.328;2023-05-17T06:07:29;11.40;63.80
37456;DHT22;23316;50.718;7.328;2023-05-17T06:09:57;11.40;63.60
37456;DHT22;23316;50.718;7.328;2023-05-17T06:12:24;11.40;63.50
37456;DHT22;23316;50.718;7.328;2023-05-17T06:14:51;11.40;63.30
37456;DHT22;23316;50.718;7.328;2023-05-17T06:17:20;11.40;63.20
37456;DHT22;23316;50.718;7.328;2023-05-17T06:19:47;11.40;63.30
37456;DHT22;23316;50.718;7.328;2023-05-17T06:22:15;11.40;63.20
37456;DHT22;23316;50.718;7.328;2023-05-17T06:24:42;11.40;63.30
37456;DHT22;23316;50.718;7.328;2023-05-17T06:27:09;11.40;63.40
37456;DHT22;23316;50.718;7.328;2023-05-17T06:29:36;11.50;63.50
37456;DHT22;23316;50.718;7.328;2023-05-17T06:32:05;11.40;63.50
37456;DHT22;23316;50.718;7.328;2023-05-17T06:34:33;11.40;63.60
37456;DHT22;23316;50.718;7.328;2023-05-17T06:37:00;11.40;64.00
37456;DHT22;23316;50.718;7.328;2023-05-17T06:39:28;11.40;64.10
37456;DHT22;23316;50.718;7.328;2023-05-17T06:41:55;11.40;64.40
37456;DHT22;23316;50.718;7.328;2023-05-17T06:44:23;11.40;64.50
37456;DHT22;23316;50.718;7.328;2023-05-17T06:46:50;11.40;64.80
37456;DHT22;23316;50.718;7.328;2023-05-17T06:49:17;11.40;65.10
37456;DHT22;23316;50.718;7.328;2023-05-17T06:51:46;11.40;65.40
37456;DHT22;23316;50.718;7.328;2023-05-17T06:54:14;11.40;65.50
37456;DHT22;23316;50.718;7.328;2023-05-17T06:56:41;11.40;65.50
37456;DHT22;23316;50.718;7.328;2023-05-17T06:59:09;11.40;65.80
37456;DHT22;23316;50.718;7.328;2023-05-17T07:01:36;11.40;65.90
37456;DHT22;23316;50.718;7.328;2023-05-17T07:04:04;11.40;66.30
37456;DHT22;23316;50.718;7.328;2023-05-17T07:06:31;11.40;66.30
37456;DHT22;23316;50.718;7.328;2023-05-17T07:09:00;11.50;66.60
37456;DHT22;23316;50.718;7.328;2023-05-17T07:11:27;11.50;66.60
37456;DHT22;23316;50.718;7.328;2023-05-17T07:13:54;11.60;66.40
37456;DHT22;23316;50.718;7.328;2023-05-17T07:16:22;11.70;66.20
37456;DHT22;23316;50.718;7.328;2023-05-17T07:18:49;11.70;66.30
37456;DHT22;23316;50.718;7.328;2023-05-17T07:21:16;11.80;65.80
37456;DHT22;23316;50.718;7.328;2023-05-17T07:23:52;11.90;65.30
37456;DHT22;23316;50.718;7.328;2023-05-17T07:26:21;12.00;64.90
37456;DHT22;23316;50.718;7.328;2023-05-17T07:28:49;12.00;64.00
37456;DHT22;23316;50.718;7.328;2023-05-17T07:31:17;12.00;62.90
37456;DHT22;23316;50.718;7.328;2023-05-17T07:33:44;12.10;62.80
37456;DHT22;23316;50.718;7.328;2023-05-17T07:36:11;12.20;62.70
37456;DHT22;23316;50.718;7.328;2023-05-17T07:38:39;12.20;62.20
37456;DHT22;23316;50.718;7.328;2023-05-17T07:41:06;12.30;61.40
37456;DHT22;23316;50.718;7.328;2023-05-17T07:43:36;12.40;60.50
37456;DHT22;23316;50.718;7.328;2023-05-17T07:46:04;12.40;61.50
37456;DHT22;23316;50.718;7.328;2023-05-17T07:48:31;12.50;61.00
37456;DHT22;23316;50.718;7.328;2023-05-17T07:50:58;12.60;59.80
37456;DHT22;23316;50.718;7.328;2023-05-17T07:53:26;12.70;59.90
37456;DHT22;23316;50.718;7.328;2023-05-17T07:55:53;12.70;58.10
37456;DHT22;23316;50.718;7.328;2023-05-17T07:58:20;12.70;58.00
37456;DHT22;23316;50.718;7.328;2023-05-17T08:00:49;12.80;57.80
37456;DHT22;23316;50.718;7.328;2023-05-17T08:03:17;12.90;57.60
37456;DHT22;23316;50.718;7.328;2023-05-17T08:05:44;12.90;57.40
37456;DHT22;23316;50.718;7.328;2023-05-17T08:08:11;13.00;57.80
37456;DHT22;23316;50.718;7.328;2023-05-17T08:10:38;13.10;58.20
37456;DHT22;23316;50.718;7.328;2023-05-17T08:13:05;13.20;57.90
37456;DHT22;23316;50.718;7.328;2023-05-17T08:15:33;13.20;57.50
37456;DHT22;23316;50.718;7.328;2023-05-17T08:18:01;13.30;57.30
37456;DHT22;23316;50.718;7.328;2023-05-17T08:20:29;13.40;56.70
37456;DHT22;23316;50.718;7.328;2023-05-17T09:03:39;14.00;51.00
37456;DHT22;23316;50.718;7.328;2023-05-17T09:06:07;14.10;51.20
37456;DHT22;23316;50.718;7.328;2023-05-17T09:08:36;14.10;50.80
37456;DHT22;23316;50.718;7.328;2023-05-17T09:11:04;14.10;51.40
37456;DHT22;23316;50.718;7.328;2023-05-17T09:13:31;14.10;51.60
37456;DHT22;23316;50.718;7.328;2023-05-17T09:15:58;14.10;51.00
37456;DHT22;23316;50.718;7.328;2023-05-17T09:18:29;14.10;50.90
37456;DHT22;23316;50.718;7.328;2023-05-17T09:21:02;14.10;50.20
37456;DHT22;23316;50.718;7.328;2023-05-17T09:23:30;14.10;49.10
37456;DHT22;23316;50.718;7.328;2023-05-17T09:26:03;14.20;50.10
37456;DHT22;23316;50.718;7.328;2023-05-17T09:28:36;14.20;48.90
37456;DHT22;23316;50.718;7.328;2023-05-17T09:31:05;14.20;48.00
37456;DHT22;23316;50.718;7.328;2023-05-17T09:33:33;14.20;46.00
37456;DHT22;23316;50.718;7.328;2023-05-17T09:36:03;14.30;45.40
37456;DHT22;23316;50.718;7.328;2023-05-17T09:38:30;14.30;44.50
37456;DHT22;23316;50.718;7.328;2023-05-17T09:40:59;14.50;45.10
37456;DHT22;23316;50.718;7.328;2023-05-17T09:43:28;14.50;44.90
37456;DHT22;23316;50.718;7.328;2023-05-17T09:45:57;14.60;45.10
37456;DHT22;23316;50.718;7.328;2023-05-17T09:48:25;14.70;46.50
37456;DHT22;23316;50.718;7.328;2023-05-17T09:50:53;14.70;45.40
37456;DHT22;23316;50.718;7.328;2023-05-17T09:53:26;14.80;45.60
37456;DHT22;23316;50.718;7.328;2023-05-17T09:55:54;14.80;44.00
37456;DHT22;23316;50.718;7.328;2023-05-17T09:58:24;14.90;45.10
37456;DHT22;23316;50.718;7.328;2023-05-17T10:00:53;15.00;44.80
37456;DHT22;23316;50.718;7.328;2023-05-17T10:03:20;15.00;43.50
37456;DHT22;23316;50.718;7.328;2023-05-17T10:05:50;15.00;42.40
37456;DHT22;23316;50.718;7.328;2023-05-17T10:08:21;15.00;42.60
37456;DHT22;23316;50.718;7.328;2023-05-17T10:10:54;15.10;44.20
37456;DHT22;23316;50.718;7.328;2023-05-17T10:13:29;15.10;43.80
37456;DHT22;23316;50.718;7.328;2023-05-17T10:16:01;15.20;43.50
37456;DHT22;23316;50.718;7.328;2023-05-17T10:18:32;15.30;43.80
37456;DHT22;23316;50.718;7.328;2023-05-17T10:21:03;15.30;44.10
37456;DHT22;23316;50.718;7.328;2023-05-17T10:23:32;15.40;43.80
37456;DHT22;23316;50.718;7.328;2023-05-17T10:26:01;15.30;42.80
37456;DHT22;23316;50.718;7.328;2023-05-17T10:28:29;15.30;43.70
37456;DHT22;23316;50.718;7.328;2023-05-17T10:30:56;15.30;44.20
37456;DHT22;23316;50.718;7.328;2023-05-17T10:33:26;15.30;43.20
37456;DHT22;23316;50.718;7.328;2023-05-17T10:35:55;15.20;42.30
37456;DHT22;23316;50.718;7.328;2023-05-17T10:38:22;15.20;43.60
37456;DHT22;23316;50.718;7.328;2023-05-17T10:40:51;15.20;43.90
37456;DHT22;23316;50.718;7.328;2023-05-17T10:43:21;15.20;43.50
37456;DHT22;23316;50.718;7.328;2023-05-17T10:45:51;15.30;43.40
37456;DHT22;23316;50.718;7.328;2023-05-17T10:48:19;15.30;42.70
37456;DHT22;23316;50.718;7.328;2023-05-17T10:50:47;15.40;42.90
37456;DHT22;23316;50.718;7.328;2023-05-17T10:53:14;15.40;43.10
37456;DHT22;23316;50.718;7.328;2023-05-17T10:55:42;15.40;44.10
37456;DHT22;23316;50.718;7.328;2023-05-17T10:58:18;15.40;43.90
37456;DHT22;23316;50.718;7.328;2023-05-17T11:00:48;15.50;44.10
37456;DHT22;23316;50.718;7.328;2023-05-17T11:03:17;15.50;42.90
37456;DHT22;23316;50.718;7.328;2023-05-17T11:06:11;15.50;42.90
37456;DHT22;23316;50.718;7.328;2023-05-17T11:08:43;15.50;41.50
37456;DHT22;23316;50.718;7.328;2023-05-17T11:11:15;15.60;42.40
37456;DHT22;23316;50.718;7.328;2023-05-17T11:13:44;15.60;41.90
37456;DHT22;23316;50.718;7.328;2023-05-17T11:16:16;15.60;40.60
37456;DHT22;23316;50.718;7.328;2023-05-17T11:18:48;15.70;41.00
37456;DHT22;23316;50.718;7.328;2023-05-17T11:21:16;15.70;42.00
37456;DHT22;23316;50.718;7.328;2023-05-17T11:23:44;15.70;42.20
37456;DHT22;23316;50.718;7.328;2023-05-17T11:26:16;15.80;42.10
37456;DHT22;23316;50.718;7.328;2023-05-17T11:28:44;15.80;42.00
37456;DHT22;23316;50.718;7.328;2023-05-17T11:31:11;15.90;42.40
37456;DHT22;23316;50.718;7.328;2023-05-17T11:33:42;15.90;41.30
37456;DHT22;23316;50.718;7.328;2023-05-17T11:36:17;16.00;40.60
37456;DHT22;23316;50.718;7.328;2023-05-17T11:38:48;16.00;40.70
37456;DHT22;23316;50.718;7.328;2023-05-17T11:41:17;16.00;39.80
37456;DHT22;23316;50.718;7.328;2023-05-17T11:43:44;16.00;40.00
37456;DHT22;23316;50.718;7.328;2023-05-17T11:46:18;16.00;40.30
37456;DHT22;23316;50.718;7.328;2023-05-17T11:48:49;16.00;40.50
37456;DHT22;23316;50.718;7.328;2023-05-17T11:51:17;16.00;38.60
37456;DHT22;23316;50.718;7.328;2023-05-17T11:53:45;16.10;39.90
37456;DHT22;23316;50.718;7.328;2023-05-17T11:59:36;16.10;40.20
37456;DHT22;23316;50.718;7.328;2023-05-17T12:02:04;16.20;40.50
37456;DHT22;23316;50.718;7.328;2023-05-17T12:04:35;16.30;40.30
37456;DHT22;23316;50.718;7.328;2023-05-17T12:07:03;16.30;40.10
37456;DHT22;23316;50.718;7.328;2023-05-17T12:09:31;16.30;39.40
37456;DHT22;23316;50.718;7.328;2023-05-17T12:12:01;16.40;38.40
37456;DHT22;23316;50.718;7.328;2023-05-17T12:14:29;16.40;39.60
37456;DHT22;23316;50.718;7.328;2023-05-17T12:16:58;16.50;39.20
37456;DHT22;23316;50.718;7.328;2023-05-17T12:19:27;16.50;39.10
37456;DHT22;23316;50.718;7.328;2023-05-17T12:22:06;16.50;39.30
37456;DHT22;23316;50.718;7.328;2023-05-17T12:24:37;16.50;39.60
37456;DHT22;23316;50.718;7.328;2023-05-17T12:27:05;16.60;39.80
37456;DHT22;23316;50.718;7.328;2023-05-17T12:29:32;16.60;38.90
37456;DHT22;23316;50.718;7.328;2023-05-17T12:32:00;16.60;40.00
37456;DHT22;23316;50.718;7.328;2023-05-17T12:34:28;16.60;39.20
37456;DHT22;23316;50.718;7.328;2023-05-17T12:36:57;16.70;38.80
37456;DHT22;23316;50.718;7.328;2023-05-17T12:39:25;16.70;38.60
37456;DHT22;23316;50.718;7.328;2023-05-17T12:41:53;16.70;37.20
37456;DHT22;23316;50.718;7.328;2023-05-17T12:44:20;16.70;38.00
37456;DHT22;23316;50.718;7.328;2023-05-17T12:46:48;16.80;38.20
37456;DHT22;23316;50.718;7.328;2023-05-17T12:49:19;16.80;37.80
37456;DHT22;23316;50.718;7.328;2023-05-17T12:51:47;16.80;37.60
37456;DHT22;23316;50.718;7.328;2023-05-17T12:54:26;16.80;37.50
37456;DHT22;23316;50.718;7.328;2023-05-17T12:56:54;16.80;37.40
37456;DHT22;23316;50.718;7.328;2023-05-17T12:59:21;16.80;37.90
37456;DHT22;23316;50.718;7.328;2023-05-17T13:01:51;16.80;37.60
37456;DHT22;23316;50.718;7.328;2023-05-17T13:04:27;16.90;38.10
37456;DHT22;23316;50.718;7.328;2023-05-17T13:06:58;16.80;37.00
37456;DHT22;23316;50.718;7.328;2023-05-17T13:09:29;16.80;37.10
37456;DHT22;23316;50.718;7.328;2023-05-17T13:11:58;16.90;37.90
37456;DHT22;23316;50.718;7.328;2023-05-17T13:14:33;16.90;38.30
37456;DHT22;23316;50.718;7.328;2023-05-17T13:17:01;17.00;38.80
37456;DHT22;23316;50.718;7.328;2023-05-17T13:19:28;17.00;39.10
37456;DHT22;23316;50.718;7.328;2023-05-17T13:21:56;17.10;38.10
37456;DHT22;23316;50.718;7.328;2023-05-17T13:24:26;17.20;38.60
37456;DHT22;23316;50.718;7.328;2023-05-17T13:26:53;17.20;38.40
37456;DHT22;23316;50.718;7.328;2023-05-17T13:29:20;17.30;38.80
37456;DHT22;23316;50.718;7.328;2023-05-17T13:31:48;17.30;39.00
37456;DHT22;23316;50.718;7.328;2023-05-17T13:34:15;17.40;38.90
37456;DHT22;23316;50.718;7.328;2023-05-17T13:36:43;17.40;39.40
37456;DHT22;23316;50.718;7.328;2023-05-17T13:39:10;17.50;39.10
37456;DHT22;23316;50.718;7.328;2023-05-17T13:41:39;17.60;39.30
37456;DHT22;23316;50.718;7.328;2023-05-17T13:44:06;17.60;36.80
37456;DHT22;23316;50.718;7.328;2023-05-17T13:46:33;17.60;36.60
37456;DHT22;23316;50.718;7.328;2023-05-17T13:49:01;17.70;37.40
37456;DHT22;23316;50.718;7.328;2023-05-17T13:51:29;17.70;36.80
37456;DHT22;23316;50.718;7.328;2023-05-17T13:53:56;17.60;35.40
37456;DHT22;23316;50.718;7.328;2023-05-17T13:56:24;17.60;36.30
37456;DHT22;23316;50.718;7.328;2023-05-17T13:58:52;17.60;36.10
37456;DHT22;23316;50.718;7.328;2023-05-17T14:01:19;17.50;36.40
37456;DHT22;23316;50.718;7.328;2023-05-17T14:03:47;17.50;36.90
37456;DHT22;23316;50.718;7.328;2023-05-17T14:06:14;17.50;35.90
37456;DHT22;23316;50.718;7.328;2023-05-17T14:08:41;17.40;36.20
37456;DHT22;23316;50.718;7.328;2023-05-17T14:11:09;17.40;35.90
37456;DHT22;23316;50.718;7.328;2023-05-17T14:13:36;17.40;36.50
37456;DHT22;23316;50.718;7.328;2023-05-17T14:16:05;17.40;36.10
37456;DHT22;23316;50.718;7.328;2023-05-17T14:18:33;17.40;37.40
37456;DHT22;23316;50.718;7.328;2023-05-17T14:21:00;17.40;37.90
37456;DHT22;23316;50.718;7.328;2023-05-17T14:23:28;17.50;36.10
37456;DHT22;23316;50.718;7.328;2023-05-17T14:25:55;17.40;36.50
37456;DHT22;23316;50.718;7.328;2023-05-17T14:28:23;17.40;35.60
37456;DHT22;23316;50.718;7.328;2023-05-17T14:30:50;17.50;36.80
37456;DHT22;23316;50.718;7.328;2023-05-17T14:33:19;17.50;37.60
37456;DHT22;23316;50.718;7.328;2023-05-17T14:35:46;17.50;37.30
37456;DHT22;23316;50.718;7.328;2023-05-17T14:38:14;17.60;36.60
37456;DHT22;23316;50.718;7.328;2023-05-17T14:40:41;17.60;36.60
37456;DHT22;23316;50.718;7.328;2023-05-17T14:43:08;17.60;35.80
37456;DHT22;23316;50.718;7.328;2023-05-17T14:45:36;17.60;35.40
37456;DHT22;23316;50.718;7.328;2023-05-17T14:48:03;17.50;34.60
37456;DHT22;23316;50.718;7.328;2023-05-17T14:50:32;17.50;35.50
37456;DHT22;23316;50.718;7.328;2023-05-17T14:52:59;17.50;36.00
37456;DHT22;23316;50.718;7.328;2023-05-17T14:55:27;17.60;36.60
37456;DHT22;23316;50.718;7.328;2023-05-17T14:57:54;17.60;37.10
37456;DHT22;23316;50.718;7.328;2023-05-17T15:00:23;17.70;36.80
37456;DHT22;23316;50.718;7.328;2023-05-17T15:02:51;17.70;37.20
37456;DHT22;23316;50.718;7.328;2023-05-17T15:05:19;17.70;35.00
37456;DHT22;23316;50.718;7.328;2023-05-17T15:07:47;17.70;35.90
37456;DHT22;23316;50.718;7.328;2023-05-17T15:10:15;17.70;35.60
37456;DHT22;23316;50.718;7.328;2023-05-17T15:12:42;17.70;36.60
37456;DHT22;23316;50.718;7.328;2023-05-17T15:15:10;17.70;36.00
37456;DHT22;23316;50.718;7.328;2023-05-17T15:17:37;17.70;36.10
37456;DHT22;23316;50.718;7.328;2023-05-17T15:20:06;17.70;35.70
37456;DHT22;23316;50.718;7.328;2023-05-17T15:22:33;17.70;35.90
37456;DHT22;23316;50.718;7.328;2023-05-17T15:25:03;17.70;36.60
37456;DHT22;23316;50.718;7.328;2023-05-17T15:27:30;17.70;36.50
37456;DHT22;23316;50.718;7.328;2023-05-17T15:29:58;17.70;36.30
37456;DHT22;23316;50.718;7.328;2023-05-17T15:32:25;17.70;36.80
37456;DHT22;23316;50.718;7.328;2023-05-17T15:34:53;17.70;36.50
37456;DHT22;23316;50.718;7.328;2023-05-17T15:37:20;17.80;36.50
37456;DHT22;23316;50.718;7.328;2023-05-17T15:39:47;17.80;35.70
37456;DHT22;23316;50.718;7.328;2023-05-17T15:42:16;17.80;34.80
37456;DHT22;23316;50.718;7.328;2023-05-17T15:44:43;17.70;34.40
37456;DHT22;23316;50.718;7.328;2023-05-17T15:47:11;17.70;34.50
37456;DHT22;23316;50.718;7.328;2023-05-17T15:49:38;17.70;34.60
37456;DHT22;23316;50.718;7.328;2023-05-17T15:52:06;17.70;34.50
37456;DHT22;23316;50.718;7.328;2023-05-17T15:54:33;17.60;34.80
37456;DHT22;23316;50.718;7.328;2023-05-17T15:57:01;17.60;34.80
37456;DHT22;23316;50.718;7.328;2023-05-17T15:59:29;17.60;35.40
37456;DHT22;23316;50.718;7.328;2023-05-17T16:01:57;17.60;35.90
37456;DHT22;23316;50.718;7.328;2023-05-17T16:04:24;17.50;35.80
37456;DHT22;23316;50.718;7.328;2023-05-17T16:06:51;17.50;35.00
37456;DHT22;23316;50.718;7.328;2023-05-17T16:09:18;17.40;35.10
37456;DHT22;23316;50.718;7.328;2023-05-17T16:11:46;17.50;35.60
37456;DHT22;23316;50.718;7.328;2023-05-17T16:14:13;17.50;35.70
37456;DHT22;23316;50.718;7.328;2023-05-17T16:16:43;17.50;35.80
37456;DHT22;23316;50.718;7.328;2023-05-17T16:19:11;17.50;35.90
37456;DHT22;23316;50.718;7.328;2023-05-17T16:21:38;17.50;34.60